sensor_id;sensor_type;location;lat;lon;timestamp;P1;durP1;ratioP1;P2;durP2;ratioP2
57217;SDS011;43078;52.972;6.482;2023-03-01T00:02:05;20.70;;;16.50;;
57217;SDS011;43078;52.972;6.482;2023-03-01T00:04:31;24.13;;;17.42;;
57217;SDS011;43078;52.972;6.482;2023-03-01T00:06:57;21.20;;;16.98;;
57217;SDS011;43078;52.972;6.482;2023-03-01T00:09:23;21.02;;;16.65;;
57217;SDS011;43078;52.972;6.482;2023-03-01T00:11:49;22.35;;;17.20;;
57217;SDS011;43078;52.972;6.482;2023-03-01T00:14:14;25.17;;;17.13;;
57217;SDS011;43078;52.972;6.482;2023-03-01T00:16:42;23.08;;;16.60;;
57217;SDS011;43078;52.972;6.482;2023-03-01T00:19:11;23.00;;;15.93;;
57217;SDS011;43078;52.972;6.482;2023-03-01T00:21:39;20.17;;;15.73;;
57217;SDS011;43078;52.972;6.482;2023-03-01T00:24:05;21.67;;;17.05;;
57217;SDS011;43078;52.972;6.482;2023-03-01T00:26:31;21.60;;;15.93;;
57217;SDS011;43078;52.972;6.482;2023-03-01T00:28:57;19.95;;;16.15;;
57217;SDS011;43078;52.972;6.482;2023-03-01T00:31:24;22.48;;;16.67;;
57217;SDS011;43078;52.972;6.482;2023-03-01T00:33:56;23.75;;;16.40;;
57217;SDS011;43078;52.972;6.482;2023-03-01T00:36:23;20.77;;;15.43;;
57217;SDS011;43078;52.972;6.482;2023-03-01T00:38:50;20.30;;;15.55;;
57217;SDS011;43078;52.972;6.482;2023-03-01T00:41:17;20.15;;;15.50;;
57217;SDS011;43078;52.972;6.482;2023-03-01T00:43:44;21.02;;;14.85;;
57217;SDS011;43078;52.972;6.482;2023-03-01T00:46:14;21.35;;;15.18;;
57217;SDS011;43078;52.972;6.482;2023-03-01T00:51:20;20.63;;;15.68;;
57217;SDS011;43078;52.972;6.482;2023-03-01T00:53:47;19.48;;;14.75;;
57217;SDS011;43078;52.972;6.482;2023-03-01T00:56:16;21.65;;;15.50;;
57217;SDS011;43078;52.972;6.482;2023-03-01T00:58:42;18.92;;;13.70;;
57217;SDS011;43078;52.972;6.482;2023-03-01T01:03:42;22.33;;;15.20;;
57217;SDS011;43078;52.972;6.482;2023-03-01T01:06:17;20.00;;;14.65;;
57217;SDS011;43078;52.972;6.482;2023-03-01T01:08:48;18.40;;;14.15;;
57217;SDS011;43078;52.972;6.482;2023-03-01T01:11:14;25.27;;;16.23;;
57217;SDS011;43078;52.972;6.482;2023-03-01T01:13:40;20.20;;;15.75;;
57217;SDS011;43078;52.972;6.482;2023-03-01T01:16:06;24.25;;;16.67;;
57217;SDS011;43078;52.972;6.482;2023-03-01T01:18:32;21.08;;;15.10;;
57217;SDS011;43078;52.972;6.482;2023-03-01T01:21:02;22.77;;;15.55;;
57217;SDS011;43078;52.972;6.482;2023-03-01T01:23:32;22.17;;;16.05;;
57217;SDS011;43078;52.972;6.482;2023-03-01T01:26:02;23.48;;;16.02;;
57217;SDS011;43078;52.972;6.482;2023-03-01T01:28:32;22.83;;;16.83;;
57217;SDS011;43078;52.972;6.482;2023-03-01T01:30:58;22.33;;;15.50;;
57217;SDS011;43078;52.972;6.482;2023-03-01T01:33:24;22.92;;;15.50;;
57217;SDS011;43078;52.972;6.482;2023-03-01T01:35:50;20.88;;;15.68;;
57217;SDS011;43078;52.972;6.482;2023-03-01T01:38:15;23.27;;;16.15;;
57217;SDS011;43078;52.972;6.482;2023-03-01T01:40:44;19.45;;;15.20;;
57217;SDS011;43078;52.972;6.482;2023-03-01T01:43:30;19.27;;;15.32;;
57217;SDS011;43078;52.972;6.482;2023-03-01T01:46:02;20.33;;;15.40;;
57217;SDS011;43078;52.972;6.482;2023-03-01T01:48:50;18.98;;;14.10;;
57217;SDS011;43078;52.972;6.482;2023-03-01T01:51:21;18.27;;;13.77;;
57217;SDS011;43078;52.972;6.482;2023-03-01T01:53:51;19.55;;;14.52;;
57217;SDS011;43078;52.972;6.482;2023-03-01T01:56:21;17.38;;;13.88;;
57217;SDS011;43078;52.972;6.482;2023-03-01T01:58:48;16.95;;;13.77;;
57217;SDS011;43078;52.972;6.482;2023-03-01T02:01:15;17.88;;;13.18;;
57217;SDS011;43078;52.972;6.482;2023-03-01T02:03:42;17.65;;;13.85;;
57217;SDS011;43078;52.972;6.482;2023-03-01T02:06:17;19.23;;;13.50;;
57217;SDS011;43078;52.972;6.482;2023-03-01T02:08:44;19.70;;;14.60;;
57217;SDS011;43078;52.972;6.482;2023-03-01T02:11:12;18.02;;;13.98;;
57217;SDS011;43078;52.972;6.482;2023-03-01T02:13:41;16.95;;;13.63;;
57217;SDS011;43078;52.972;6.482;2023-03-01T02:16:08;19.20;;;14.02;;
57217;SDS011;43078;52.972;6.482;2023-03-01T02:18:35;17.58;;;14.07;;
57217;SDS011;43078;52.972;6.482;2023-03-01T02:23:53;19.17;;;14.02;;
57217;SDS011;43078;52.972;6.482;2023-03-01T02:26:36;18.25;;;13.80;;
57217;SDS011;43078;52.972;6.482;2023-03-01T02:29:07;19.05;;;14.05;;
57217;SDS011;43078;52.972;6.482;2023-03-01T02:31:33;17.52;;;13.27;;
57217;SDS011;43078;52.972;6.482;2023-03-01T02:34:15;18.30;;;14.10;;
57217;SDS011;43078;52.972;6.482;2023-03-01T02:36:47;16.05;;;13.60;;
57217;SDS011;43078;52.972;6.482;2023-03-01T02:39:22;16.70;;;13.48;;
57217;SDS011;43078;52.972;6.482;2023-03-01T02:41:52;16.35;;;13.02;;
57217;SDS011;43078;52.972;6.482;2023-03-01T02:44:19;17.42;;;13.80;;
57217;SDS011;43078;52.972;6.482;2023-03-01T02:46:46;16.92;;;13.63;;
57217;SDS011;43078;52.972;6.482;2023-03-01T02:49:21;17.23;;;13.57;;
57217;SDS011;43078;52.972;6.482;2023-03-01T02:54:28;16.60;;;13.30;;
57217;SDS011;43078;52.972;6.482;2023-03-01T02:56:55;16.25;;;13.07;;
57217;SDS011;43078;52.972;6.482;2023-03-01T02:59:22;16.65;;;13.40;;
57217;SDS011;43078;52.972;6.482;2023-03-01T03:01:51;17.73;;;13.45;;
57217;SDS011;43078;52.972;6.482;2023-03-01T03:04:17;17.38;;;13.85;;
57217;SDS011;43078;52.972;6.482;2023-03-01T03:06:44;16.15;;;12.93;;
57217;SDS011;43078;52.972;6.482;2023-03-01T03:09:11;16.55;;;13.05;;
57217;SDS011;43078;52.972;6.482;2023-03-01T03:11:38;15.93;;;13.27;;
57217;SDS011;43078;52.972;6.482;2023-03-01T03:14:05;15.82;;;12.93;;
57217;SDS011;43078;52.972;6.482;2023-03-01T03:16:43;15.35;;;12.48;;
57217;SDS011;43078;52.972;6.482;2023-03-01T03:19:11;15.75;;;12.57;;
57217;SDS011;43078;52.972;6.482;2023-03-01T03:21:36;16.50;;;13.40;;
57217;SDS011;43078;52.972;6.482;2023-03-01T03:24:03;15.98;;;12.65;;
57217;SDS011;43078;52.972;6.482;2023-03-01T03:26:29;15.60;;;12.30;;
57217;SDS011;43078;52.972;6.482;2023-03-01T03:28:55;16.00;;;12.63;;
57217;SDS011;43078;52.972;6.482;2023-03-01T03:31:21;14.05;;;11.80;;
57217;SDS011;43078;52.972;6.482;2023-03-01T03:33:47;16.08;;;12.38;;
57217;SDS011;43078;52.972;6.482;2023-03-01T03:36:16;16.55;;;12.88;;
57217;SDS011;43078;52.972;6.482;2023-03-01T03:38:43;15.23;;;11.70;;
57217;SDS011;43078;52.972;6.482;2023-03-01T03:41:10;15.15;;;11.95;;
57217;SDS011;43078;52.972;6.482;2023-03-01T03:43:37;15.30;;;11.90;;
57217;SDS011;43078;52.972;6.482;2023-03-01T03:46:04;15.23;;;11.73;;
57217;SDS011;43078;52.972;6.482;2023-03-01T03:48:31;14.23;;;11.60;;
57217;SDS011;43078;52.972;6.482;2023-03-01T03:51:00;14.25;;;11.80;;
57217;SDS011;43078;52.972;6.482;2023-03-01T03:53:27;15.52;;;12.35;;
57217;SDS011;43078;52.972;6.482;2023-03-01T03:55:54;14.90;;;11.98;;
57217;SDS011;43078;52.972;6.482;2023-03-01T03:58:20;16.23;;;12.00;;
57217;SDS011;43078;52.972;6.482;2023-03-01T04:00:55;16.35;;;11.68;;
57217;SDS011;43078;52.972;6.482;2023-03-01T04:03:22;14.55;;;11.55;;
57217;SDS011;43078;52.972;6.482;2023-03-01T04:05:49;15.45;;;12.13;;
57217;SDS011;43078;52.972;6.482;2023-03-01T04:08:16;17.33;;;11.93;;
57217;SDS011;43078;52.972;6.482;2023-03-01T04:10:45;15.00;;;12.25;;
57217;SDS011;43078;52.972;6.482;2023-03-01T04:13:13;13.38;;;11.05;;
57217;SDS011;43078;52.972;6.482;2023-03-01T04:15:41;14.52;;;11.25;;
57217;SDS011;43078;52.972;6.482;2023-03-01T04:18:08;14.57;;;11.50;;
57217;SDS011;43078;52.972;6.482;2023-03-01T04:20:37;13.77;;;10.80;;
57217;SDS011;43078;52.972;6.482;2023-03-01T04:25:39;14.10;;;10.40;;
57217;SDS011;43078;52.972;6.482;2023-03-01T04:28:07;12.30;;;9.60;;
57217;SDS011;43078;52.972;6.482;2023-03-01T04:30:34;12.93;;;9.82;;
57217;SDS011;43078;52.972;6.482;2023-03-01T04:33:02;11.70;;;9.20;;
57217;SDS011;43078;52.972;6.482;2023-03-01T04:35:28;11.75;;;9.70;;
57217;SDS011;43078;52.972;6.482;2023-03-01T04:37:55;12.02;;;9.13;;
57217;SDS011;43078;52.972;6.482;2023-03-01T04:40:20;11.55;;;9.70;;
57217;SDS011;43078;52.972;6.482;2023-03-01T04:42:46;12.25;;;10.13;;
57217;SDS011;43078;52.972;6.482;2023-03-01T04:45:12;12.68;;;9.45;;
57217;SDS011;43078;52.972;6.482;2023-03-01T04:47:38;12.23;;;9.68;;
57217;SDS011;43078;52.972;6.482;2023-03-01T04:50:09;12.02;;;9.25;;
57217;SDS011;43078;52.972;6.482;2023-03-01T04:52:37;12.23;;;9.63;;
57217;SDS011;43078;52.972;6.482;2023-03-01T04:55:03;11.93;;;9.65;;
57217;SDS011;43078;52.972;6.482;2023-03-01T04:57:30;12.30;;;9.60;;
57217;SDS011;43078;52.972;6.482;2023-03-01T04:59:56;11.93;;;9.65;;
57217;SDS011;43078;52.972;6.482;2023-03-01T05:02:22;13.02;;;10.20;;
57217;SDS011;43078;52.972;6.482;2023-03-01T05:04:48;13.05;;;10.70;;
57217;SDS011;43078;52.972;6.482;2023-03-01T05:07:14;13.32;;;10.13;;
57217;SDS011;43078;52.972;6.482;2023-03-01T05:09:47;13.80;;;10.50;;
57217;SDS011;43078;52.972;6.482;2023-03-01T05:12:13;13.88;;;10.25;;
57217;SDS011;43078;52.972;6.482;2023-03-01T05:14:39;15.45;;;10.65;;
57217;SDS011;43078;52.972;6.482;2023-03-01T05:17:06;13.52;;;10.98;;
57217;SDS011;43078;52.972;6.482;2023-03-01T05:19:31;13.05;;;10.68;;
57217;SDS011;43078;52.972;6.482;2023-03-01T05:21:58;14.10;;;11.25;;
57217;SDS011;43078;52.972;6.482;2023-03-01T05:24:26;13.88;;;11.15;;
57217;SDS011;43078;52.972;6.482;2023-03-01T05:26:53;14.27;;;11.20;;
57217;SDS011;43078;52.972;6.482;2023-03-01T05:29:19;15.23;;;11.20;;
57217;SDS011;43078;52.972;6.482;2023-03-01T05:31:53;13.93;;;10.85;;
57217;SDS011;43078;52.972;6.482;2023-03-01T05:34:26;14.95;;;12.02;;
57217;SDS011;43078;52.972;6.482;2023-03-01T05:36:56;14.00;;;11.48;;
57217;SDS011;43078;52.972;6.482;2023-03-01T05:39:23;14.68;;;11.40;;
57217;SDS011;43078;52.972;6.482;2023-03-01T05:41:53;14.55;;;11.75;;
57217;SDS011;43078;52.972;6.482;2023-03-01T05:44:23;14.40;;;11.60;;
57217;SDS011;43078;52.972;6.482;2023-03-01T05:46:50;16.20;;;12.48;;
57217;SDS011;43078;52.972;6.482;2023-03-01T05:49:16;14.30;;;11.45;;
57217;SDS011;43078;52.972;6.482;2023-03-01T05:51:42;15.38;;;12.13;;
57217;SDS011;43078;52.972;6.482;2023-03-01T05:54:12;14.57;;;11.82;;
57217;SDS011;43078;52.972;6.482;2023-03-01T05:56:37;14.18;;;11.52;;
57217;SDS011;43078;52.972;6.482;2023-03-01T05:59:03;14.55;;;11.90;;
57217;SDS011;43078;52.972;6.482;2023-03-01T06:01:33;15.13;;;12.32;;
57217;SDS011;43078;52.972;6.482;2023-03-01T06:03:59;16.23;;;13.02;;
57217;SDS011;43078;52.972;6.482;2023-03-01T06:06:25;14.95;;;11.77;;
57217;SDS011;43078;52.972;6.482;2023-03-01T06:08:51;14.35;;;11.88;;
57217;SDS011;43078;52.972;6.482;2023-03-01T06:11:17;15.52;;;12.18;;
57217;SDS011;43078;52.972;6.482;2023-03-01T06:13:43;15.80;;;12.60;;
57217;SDS011;43078;52.972;6.482;2023-03-01T06:16:10;14.05;;;11.23;;
57217;SDS011;43078;52.972;6.482;2023-03-01T06:18:36;16.33;;;12.23;;
57217;SDS011;43078;52.972;6.482;2023-03-01T06:21:03;15.52;;;11.95;;
57217;SDS011;43078;52.972;6.482;2023-03-01T06:23:30;14.57;;;11.88;;
57217;SDS011;43078;52.972;6.482;2023-03-01T06:25:56;14.73;;;11.60;;
57217;SDS011;43078;52.972;6.482;2023-03-01T06:28:21;13.95;;;11.63;;
57217;SDS011;43078;52.972;6.482;2023-03-01T06:30:47;14.85;;;11.80;;
57217;SDS011;43078;52.972;6.482;2023-03-01T06:33:14;15.85;;;12.73;;
57217;SDS011;43078;52.972;6.482;2023-03-01T06:35:40;15.57;;;11.82;;
57217;SDS011;43078;52.972;6.482;2023-03-01T06:38:05;14.02;;;11.40;;
57217;SDS011;43078;52.972;6.482;2023-03-01T06:40:31;13.95;;;11.68;;
57217;SDS011;43078;52.972;6.482;2023-03-01T06:43:00;15.52;;;11.73;;
57217;SDS011;43078;52.972;6.482;2023-03-01T06:45:25;17.20;;;12.63;;
57217;SDS011;43078;52.972;6.482;2023-03-01T06:47:52;14.65;;;11.27;;
57217;SDS011;43078;52.972;6.482;2023-03-01T06:50:25;13.73;;;10.93;;
57217;SDS011;43078;52.972;6.482;2023-03-01T06:52:55;14.00;;;10.95;;
57217;SDS011;43078;52.972;6.482;2023-03-01T06:55:21;13.73;;;10.98;;
57217;SDS011;43078;52.972;6.482;2023-03-01T06:57:46;13.75;;;11.20;;
57217;SDS011;43078;52.972;6.482;2023-03-01T07:00:12;13.88;;;11.27;;
57217;SDS011;43078;52.972;6.482;2023-03-01T07:02:38;13.73;;;10.85;;
57217;SDS011;43078;52.972;6.482;2023-03-01T07:05:04;13.68;;;10.82;;
57217;SDS011;43078;52.972;6.482;2023-03-01T07:07:30;12.98;;;10.48;;
57217;SDS011;43078;52.972;6.482;2023-03-01T07:09:55;13.80;;;11.05;;
57217;SDS011;43078;52.972;6.482;2023-03-01T07:12:21;13.60;;;11.23;;
57217;SDS011;43078;52.972;6.482;2023-03-01T07:14:47;13.38;;;10.27;;
57217;SDS011;43078;52.972;6.482;2023-03-01T07:17:12;14.40;;;11.43;;
57217;SDS011;43078;52.972;6.482;2023-03-01T07:19:38;14.90;;;11.80;;
57217;SDS011;43078;52.972;6.482;2023-03-01T07:22:03;13.90;;;11.05;;
57217;SDS011;43078;52.972;6.482;2023-03-01T07:24:32;13.80;;;10.85;;
57217;SDS011;43078;52.972;6.482;2023-03-01T07:26:58;14.52;;;11.90;;
57217;SDS011;43078;52.972;6.482;2023-03-01T07:29:24;13.73;;;11.10;;
57217;SDS011;43078;52.972;6.482;2023-03-01T07:31:49;12.85;;;10.23;;
57217;SDS011;43078;52.972;6.482;2023-03-01T07:34:15;14.52;;;10.88;;
57217;SDS011;43078;52.972;6.482;2023-03-01T07:36:40;15.02;;;10.63;;
57217;SDS011;43078;52.972;6.482;2023-03-01T07:39:08;13.80;;;10.82;;
57217;SDS011;43078;52.972;6.482;2023-03-01T07:41:34;15.35;;;11.70;;
57217;SDS011;43078;52.972;6.482;2023-03-01T07:44:00;15.75;;;12.00;;
57217;SDS011;43078;52.972;6.482;2023-03-01T07:46:25;15.90;;;12.18;;
57217;SDS011;43078;52.972;6.482;2023-03-01T07:48:51;15.07;;;12.10;;
57217;SDS011;43078;52.972;6.482;2023-03-01T07:51:17;15.98;;;12.13;;
57217;SDS011;43078;52.972;6.482;2023-03-01T07:53:45;16.30;;;12.65;;
57217;SDS011;43078;52.972;6.482;2023-03-01T07:56:13;16.08;;;12.30;;
57217;SDS011;43078;52.972;6.482;2023-03-01T07:58:41;16.20;;;11.93;;
57217;SDS011;43078;52.972;6.482;2023-03-01T08:01:08;19.55;;;13.55;;
57217;SDS011;43078;52.972;6.482;2023-03-01T08:03:40;17.23;;;13.60;;
57217;SDS011;43078;52.972;6.482;2023-03-01T08:06:07;19.88;;;13.77;;
57217;SDS011;43078;52.972;6.482;2023-03-01T08:08:34;17.92;;;12.85;;
57217;SDS011;43078;52.972;6.482;2023-03-01T08:11:03;16.85;;;12.75;;
57217;SDS011;43078;52.972;6.482;2023-03-01T08:13:30;18.30;;;13.38;;
57217;SDS011;43078;52.972;6.482;2023-03-01T08:16:03;17.65;;;13.65;;
57217;SDS011;43078;52.972;6.482;2023-03-01T08:18:39;17.42;;;13.15;;
57217;SDS011;43078;52.972;6.482;2023-03-01T08:21:08;17.77;;;13.20;;
57217;SDS011;43078;52.972;6.482;2023-03-01T08:23:36;18.73;;;13.95;;
57217;SDS011;43078;52.972;6.482;2023-03-01T08:26:05;20.40;;;14.20;;
57217;SDS011;43078;52.972;6.482;2023-03-01T08:28:33;19.73;;;14.32;;
57217;SDS011;43078;52.972;6.482;2023-03-01T08:30:59;19.75;;;14.95;;
57217;SDS011;43078;52.972;6.482;2023-03-01T08:33:25;19.73;;;15.27;;
57217;SDS011;43078;52.972;6.482;2023-03-01T08:36:06;20.73;;;14.85;;
57217;SDS011;43078;52.972;6.482;2023-03-01T08:38:33;19.60;;;14.32;;
57217;SDS011;43078;52.972;6.482;2023-03-01T08:41:00;18.42;;;14.18;;
57217;SDS011;43078;52.972;6.482;2023-03-01T08:43:27;19.15;;;14.27;;
57217;SDS011;43078;52.972;6.482;2023-03-01T08:45:53;21.38;;;14.32;;
57217;SDS011;43078;52.972;6.482;2023-03-01T08:48:18;21.35;;;14.90;;
57217;SDS011;43078;52.972;6.482;2023-03-01T08:50:44;21.80;;;15.73;;
57217;SDS011;43078;52.972;6.482;2023-03-01T08:53:09;20.98;;;15.40;;
57217;SDS011;43078;52.972;6.482;2023-03-01T08:55:35;19.50;;;15.23;;
57217;SDS011;43078;52.972;6.482;2023-03-01T08:58:01;21.73;;;15.90;;
57217;SDS011;43078;52.972;6.482;2023-03-01T09:00:26;23.75;;;16.85;;
57217;SDS011;43078;52.972;6.482;2023-03-01T09:02:52;23.35;;;16.60;;
57217;SDS011;43078;52.972;6.482;2023-03-01T09:05:18;23.40;;;16.77;;
57217;SDS011;43078;52.972;6.482;2023-03-01T09:07:44;32.03;;;21.92;;
57217;SDS011;43078;52.972;6.482;2023-03-01T09:10:09;23.02;;;16.83;;
57217;SDS011;43078;52.972;6.482;2023-03-01T09:12:35;22.70;;;16.15;;
57217;SDS011;43078;52.972;6.482;2023-03-01T09:15:01;22.58;;;16.73;;
57217;SDS011;43078;52.972;6.482;2023-03-01T09:17:26;22.00;;;16.58;;
57217;SDS011;43078;52.972;6.482;2023-03-01T09:19:52;22.85;;;16.75;;
57217;SDS011;43078;52.972;6.482;2023-03-01T09:22:18;25.25;;;17.92;;
57217;SDS011;43078;52.972;6.482;2023-03-01T09:24:43;36.13;;;24.25;;
57217;SDS011;43078;52.972;6.482;2023-03-01T09:27:09;33.60;;;22.55;;
57217;SDS011;43078;52.972;6.482;2023-03-01T09:29:36;25.27;;;18.40;;
57217;SDS011;43078;52.972;6.482;2023-03-01T09:32:01;25.02;;;18.30;;
57217;SDS011;43078;52.972;6.482;2023-03-01T09:34:27;27.90;;;18.40;;
57217;SDS011;43078;52.972;6.482;2023-03-01T09:36:53;27.13;;;18.02;;
57217;SDS011;43078;52.972;6.482;2023-03-01T09:39:18;34.13;;;22.83;;
57217;SDS011;43078;52.972;6.482;2023-03-01T09:44:43;26.40;;;18.55;;
57217;SDS011;43078;52.972;6.482;2023-03-01T09:47:14;29.98;;;19.73;;
57217;SDS011;43078;52.972;6.482;2023-03-01T09:50:06;37.13;;;23.50;;
57217;SDS011;43078;52.972;6.482;2023-03-01T09:52:41;35.88;;;21.75;;
57217;SDS011;43078;52.972;6.482;2023-03-01T09:58:05;35.08;;;22.40;;
57217;SDS011;43078;52.972;6.482;2023-03-01T10:00:51;31.98;;;21.55;;
57217;SDS011;43078;52.972;6.482;2023-03-01T10:03:17;26.05;;;19.60;;
57217;SDS011;43078;52.972;6.482;2023-03-01T10:06:04;27.63;;;20.02;;
57217;SDS011;43078;52.972;6.482;2023-03-01T10:08:43;32.15;;;21.90;;
57217;SDS011;43078;52.972;6.482;2023-03-01T10:11:28;31.52;;;21.85;;
57217;SDS011;43078;52.972;6.482;2023-03-01T10:16:47;31.23;;;22.23;;
57217;SDS011;43078;52.972;6.482;2023-03-01T10:19:24;30.75;;;20.65;;
57217;SDS011;43078;52.972;6.482;2023-03-01T10:21:57;30.52;;;21.48;;
57217;SDS011;43078;52.972;6.482;2023-03-01T10:24:29;31.98;;;20.52;;
57217;SDS011;43078;52.972;6.482;2023-03-01T10:27:01;29.90;;;20.65;;
57217;SDS011;43078;52.972;6.482;2023-03-01T10:29:39;28.70;;;19.30;;
57217;SDS011;43078;52.972;6.482;2023-03-01T10:32:28;29.50;;;19.50;;
57217;SDS011;43078;52.972;6.482;2023-03-01T10:34:54;31.15;;;20.83;;
57217;SDS011;43078;52.972;6.482;2023-03-01T10:37:22;27.80;;;19.77;;
57217;SDS011;43078;52.972;6.482;2023-03-01T10:39:54;31.52;;;20.15;;
57217;SDS011;43078;52.972;6.482;2023-03-01T10:42:29;27.33;;;19.10;;
57217;SDS011;43078;52.972;6.482;2023-03-01T10:44:57;27.92;;;19.45;;
57217;SDS011;43078;52.972;6.482;2023-03-01T10:47:24;28.95;;;20.48;;
57217;SDS011;43078;52.972;6.482;2023-03-01T10:49:58;28.45;;;19.10;;
57217;SDS011;43078;52.972;6.482;2023-03-01T10:54:57;24.77;;;18.95;;
57217;SDS011;43078;52.972;6.482;2023-03-01T10:57:29;26.17;;;18.45;;
57217;SDS011;43078;52.972;6.482;2023-03-01T11:02:46;24.40;;;17.35;;
57217;SDS011;43078;52.972;6.482;2023-03-01T11:07:49;26.08;;;19.05;;
57217;SDS011;43078;52.972;6.482;2023-03-01T11:10:21;25.20;;;18.42;;
57217;SDS011;43078;52.972;6.482;2023-03-01T11:12:50;23.30;;;17.05;;
57217;SDS011;43078;52.972;6.482;2023-03-01T11:15:35;24.00;;;18.05;;
57217;SDS011;43078;52.972;6.482;2023-03-01T11:18:01;25.98;;;18.27;;
57217;SDS011;43078;52.972;6.482;2023-03-01T11:20:31;22.75;;;17.50;;
57217;SDS011;43078;52.972;6.482;2023-03-01T11:23:10;23.55;;;17.83;;
57217;SDS011;43078;52.972;6.482;2023-03-01T11:25:39;24.30;;;17.95;;
57217;SDS011;43078;52.972;6.482;2023-03-01T11:31:03;23.50;;;17.73;;
57217;SDS011;43078;52.972;6.482;2023-03-01T11:36:03;24.80;;;17.85;;
57217;SDS011;43078;52.972;6.482;2023-03-01T11:38:41;25.42;;;16.65;;
57217;SDS011;43078;52.972;6.482;2023-03-01T11:41:13;23.42;;;17.20;;
57217;SDS011;43078;52.972;6.482;2023-03-01T12:08:14;20.52;;;15.57;;
57217;SDS011;43078;52.972;6.482;2023-03-01T12:15:57;21.92;;;15.95;;
57217;SDS011;43078;52.972;6.482;2023-03-01T12:32:34;20.20;;;14.73;;
57217;SDS011;43078;52.972;6.482;2023-03-01T12:35:28;17.85;;;13.07;;
57217;SDS011;43078;52.972;6.482;2023-03-01T12:43:47;19.50;;;13.90;;
57217;SDS011;43078;52.972;6.482;2023-03-01T12:46:39;19.02;;;14.07;;
57217;SDS011;43078;52.972;6.482;2023-03-01T12:49:15;20.63;;;14.80;;
57217;SDS011;43078;52.972;6.482;2023-03-01T12:51:47;19.17;;;14.48;;
57217;SDS011;43078;52.972;6.482;2023-03-01T12:54:31;19.52;;;14.23;;
57217;SDS011;43078;52.972;6.482;2023-03-01T12:57:02;21.02;;;14.73;;
57217;SDS011;43078;52.972;6.482;2023-03-01T12:59:39;19.65;;;15.35;;
57217;SDS011;43078;52.972;6.482;2023-03-01T13:02:28;20.05;;;13.98;;
57217;SDS011;43078;52.972;6.482;2023-03-01T13:10:56;17.48;;;14.43;;
57217;SDS011;43078;52.972;6.482;2023-03-01T13:13:27;19.88;;;14.98;;
57217;SDS011;43078;52.972;6.482;2023-03-01T13:15:53;20.17;;;15.13;;
57217;SDS011;43078;52.972;6.482;2023-03-01T13:20:51;20.63;;;15.45;;
57217;SDS011;43078;52.972;6.482;2023-03-01T13:31:11;19.60;;;14.65;;
57217;SDS011;43078;52.972;6.482;2023-03-01T13:37:21;23.13;;;15.38;;
57217;SDS011;43078;52.972;6.482;2023-03-01T13:42:47;21.48;;;16.02;;
57217;SDS011;43078;52.972;6.482;2023-03-01T13:45:23;21.17;;;16.98;;
57217;SDS011;43078;52.972;6.482;2023-03-01T13:48:18;19.83;;;15.77;;
57217;SDS011;43078;52.972;6.482;2023-03-01T13:51:01;19.42;;;15.38;;
57217;SDS011;43078;52.972;6.482;2023-03-01T13:53:47;23.05;;;17.38;;
57217;SDS011;43078;52.972;6.482;2023-03-01T13:59:12;22.10;;;16.08;;
57217;SDS011;43078;52.972;6.482;2023-03-01T14:01:51;21.55;;;16.08;;
57217;SDS011;43078;52.972;6.482;2023-03-01T14:04:26;19.92;;;15.75;;
57217;SDS011;43078;52.972;6.482;2023-03-01T14:10:02;19.88;;;16.58;;
57217;SDS011;43078;52.972;6.482;2023-03-01T14:18:04;20.00;;;16.02;;
57217;SDS011;43078;52.972;6.482;2023-03-01T14:20:40;21.02;;;15.65;;
57217;SDS011;43078;52.972;6.482;2023-03-01T14:23:15;19.40;;;15.75;;
57217;SDS011;43078;52.972;6.482;2023-03-01T14:25:47;21.50;;;15.77;;
57217;SDS011;43078;52.972;6.482;2023-03-01T14:28:19;20.42;;;16.25;;
57217;SDS011;43078;52.972;6.482;2023-03-01T14:30:52;22.73;;;15.82;;
57217;SDS011;43078;52.972;6.482;2023-03-01T14:33:26;19.60;;;15.57;;
57217;SDS011;43078;52.972;6.482;2023-03-01T14:36:01;21.23;;;15.55;;
57217;SDS011;43078;52.972;6.482;2023-03-01T14:38:43;18.20;;;15.02;;
57217;SDS011;43078;52.972;6.482;2023-03-01T14:41:17;20.17;;;14.90;;
57217;SDS011;43078;52.972;6.482;2023-03-01T14:43:46;19.90;;;14.10;;
57217;SDS011;43078;52.972;6.482;2023-03-01T14:46:19;19.88;;;15.15;;
57217;SDS011;43078;52.972;6.482;2023-03-01T14:48:48;20.15;;;14.45;;
57217;SDS011;43078;52.972;6.482;2023-03-01T14:51:16;16.27;;;12.25;;
57217;SDS011;43078;52.972;6.482;2023-03-01T14:53:41;17.15;;;13.68;;
57217;SDS011;43078;52.972;6.482;2023-03-01T14:56:12;19.10;;;14.00;;
57217;SDS011;43078;52.972;6.482;2023-03-01T14:58:42;19.73;;;13.63;;
57217;SDS011;43078;52.972;6.482;2023-03-01T15:01:12;16.52;;;12.93;;
57217;SDS011;43078;52.972;6.482;2023-03-01T15:03:45;18.35;;;13.90;;
57217;SDS011;43078;52.972;6.482;2023-03-01T15:06:17;18.90;;;14.07;;
57217;SDS011;43078;52.972;6.482;2023-03-01T15:08:46;17.00;;;13.77;;
57217;SDS011;43078;52.972;6.482;2023-03-01T15:11:31;16.23;;;12.90;;
57217;SDS011;43078;52.972;6.482;2023-03-01T15:14:25;16.52;;;12.38;;
57217;SDS011;43078;52.972;6.482;2023-03-01T15:16:52;17.80;;;13.07;;
57217;SDS011;43078;52.972;6.482;2023-03-01T15:19:18;17.08;;;13.20;;
57217;SDS011;43078;52.972;6.482;2023-03-01T15:21:46;17.05;;;12.75;;
57217;SDS011;43078;52.972;6.482;2023-03-01T15:24:18;18.25;;;13.02;;
57217;SDS011;43078;52.972;6.482;2023-03-01T15:29:39;18.98;;;13.18;;
57217;SDS011;43078;52.972;6.482;2023-03-01T15:32:34;16.15;;;12.90;;
57217;SDS011;43078;52.972;6.482;2023-03-01T15:35:00;16.73;;;13.13;;
57217;SDS011;43078;52.972;6.482;2023-03-01T15:37:47;18.70;;;12.82;;
57217;SDS011;43078;52.972;6.482;2023-03-01T15:40:32;16.13;;;13.18;;
57217;SDS011;43078;52.972;6.482;2023-03-01T15:45:25;17.38;;;13.32;;
57217;SDS011;43078;52.972;6.482;2023-03-01T15:50:31;17.30;;;13.98;;
57217;SDS011;43078;52.972;6.482;2023-03-01T15:53:03;18.83;;;13.82;;
57217;SDS011;43078;52.972;6.482;2023-03-01T15:55:32;18.25;;;15.05;;
57217;SDS011;43078;52.972;6.482;2023-03-01T16:00:25;17.90;;;14.60;;
57217;SDS011;43078;52.972;6.482;2023-03-01T16:02:51;19.73;;;15.13;;
57217;SDS011;43078;52.972;6.482;2023-03-01T16:07:48;19.35;;;15.38;;
57217;SDS011;43078;52.972;6.482;2023-03-01T16:10:14;19.55;;;14.80;;
57217;SDS011;43078;52.972;6.482;2023-03-01T16:12:40;19.33;;;15.82;;
57217;SDS011;43078;52.972;6.482;2023-03-01T16:15:13;20.58;;;15.48;;
57217;SDS011;43078;52.972;6.482;2023-03-01T16:17:45;19.23;;;15.25;;
57217;SDS011;43078;52.972;6.482;2023-03-01T16:20:11;21.90;;;15.73;;
57217;SDS011;43078;52.972;6.482;2023-03-01T16:22:37;18.05;;;15.02;;
57217;SDS011;43078;52.972;6.482;2023-03-01T16:25:03;20.95;;;16.20;;
57217;SDS011;43078;52.972;6.482;2023-03-01T16:27:29;20.80;;;15.93;;
57217;SDS011;43078;52.972;6.482;2023-03-01T16:29:54;20.13;;;16.27;;
57217;SDS011;43078;52.972;6.482;2023-03-01T16:32:20;19.27;;;16.13;;
57217;SDS011;43078;52.972;6.482;2023-03-01T16:34:45;20.17;;;16.08;;
57217;SDS011;43078;52.972;6.482;2023-03-01T16:37:14;22.05;;;17.17;;
57217;SDS011;43078;52.972;6.482;2023-03-01T16:39:40;19.92;;;16.33;;
57217;SDS011;43078;52.972;6.482;2023-03-01T16:42:05;20.08;;;15.68;;
57217;SDS011;43078;52.972;6.482;2023-03-01T16:44:31;20.13;;;16.23;;
57217;SDS011;43078;52.972;6.482;2023-03-01T16:46:57;21.08;;;16.50;;